Time;durP1;ratioP1;P1;durP2;ratioP2;P2;SDS_P1;SDS_P2;PMS_P1;PMS_P2;Temp;Humidity;BMP_temperature;BMP_pressure;BME280_temperature;BME280_humidity;BME280_pressure;Samples;Min_cycle;Max_cycle;Signal;HPM_P1;HPM_P2
2022/08/19 00:00:14;;;;;;;1999.90;999.90;;;;;;;22.60;68.31;94927.97;5010482;28;20537;-75
2022/08/19 00:02:41;;;;;;;1999.90;999.90;;;;;;;22.29;68.52;94920.19;5011121;28;20152;-76
2022/08/19 00:05:07;;;;;;;1999.90;999.90;;;;;;;22.28;69.50;94951.16;5011673;28;20033;-75
2022/08/19 00:07:32;;;;;;;1999.90;999.90;;;;;;;22.60;69.25;94950.44;5011080;28;20525;-75
2022/08/19 00:09:58;;;;;;;1999.90;999.90;;;;;;;22.53;69.10;94926.03;5008283;28;20069;-76
2022/08/19 00:12:23;;;;;;;1999.90;999.90;;;;;;;22.83;68.41;94952.78;4992424;28;20113;-76
2022/08/19 00:14:48;;;;;;;1999.90;999.90;;;;;;;22.86;67.70;94935.72;5001083;28;20033;-77
2022/08/19 00:17:13;;;;;;;1999.90;999.90;;;;;;;23.02;66.56;94940.78;5008069;28;20033;-77
2022/08/19 00:19:40;;;;;;;1999.90;999.90;;;;;;;22.35;68.47;94944.19;5007904;28;20030;-76
2022/08/19 00:22:05;;;;;;;1999.90;999.90;;;;;;;22.49;68.12;94926.03;5000728;28;20084;-77
2022/08/19 00:24:31;;;;;;;1999.90;999.90;;;;;;;22.11;68.87;94907.75;5011697;28;20481;-76
2022/08/19 00:26:58;;;;;;;1999.90;999.90;;;;;;;22.33;69.24;94909.34;5012481;28;20029;-76
2022/08/19 00:29:24;;;;;;;1999.90;999.90;;;;;;;22.68;68.25;94910.56;5009946;28;20113;-76
2022/08/19 00:31:54;;;;;;;1999.90;999.90;;;;;;;22.93;67.54;94905.94;5010119;28;20034;-77
2022/08/19 00:34:20;;;;;;;1999.90;999.90;;;;;;;22.26;68.39;94901.19;5012414;28;20045;-76
2022/08/19 00:36:47;;;;;;;1999.90;999.90;;;;;;;21.73;70.25;94913.41;5012966;28;20101;-77
2022/08/19 00:39:15;;;;;;;1999.90;999.90;;;;;;;22.34;69.52;94910.91;5007906;28;20034;-76
2022/08/19 00:41:41;;;;;;;1999.90;999.90;;;;;;;22.33;69.73;94912.06;5007709;28;20026;-76
2022/08/19 00:44:13;;;;;;;1999.90;999.90;;;;;;;22.54;68.08;94914.03;5011388;28;20045;-75
2022/08/19 00:46:44;;;;;;;1999.90;999.90;;;;;;;22.91;67.60;94902.81;5010265;28;20030;-76
2022/08/19 00:49:14;;;;;;;1999.90;999.90;;;;;;;22.80;67.31;94896.59;5010331;28;20033;-76
2022/08/19 00:51:42;;;;;;;1999.90;999.90;;;;;;;22.69;67.38;94883.03;5011402;28;20022;-75
2022/08/19 00:54:09;;;;;;;1999.90;999.90;;;;;;;22.91;66.30;94874.94;5012873;28;20022;-76
2022/08/19 00:56:35;;;;;;;1999.90;999.90;;;;;;;22.57;67.26;94867.94;5011052;28;20029;-76
2022/08/19 00:59:02;;;;;;;1999.90;999.90;;;;;;;22.67;67.36;94871.03;5011491;28;20549;-77
2022/08/19 01:01:27;;;;;;;1999.90;999.90;;;;;;;22.60;67.16;94871.81;5010573;28;20387;-76
2022/08/19 01:03:53;;;;;;;1999.90;999.90;;;;;;;22.31;68.68;94882.63;5011367;28;20026;-75
2022/08/19 01:06:18;;;;;;;1999.90;999.90;;;;;;;22.75;67.34;94888.84;5012034;28;20088;-76
2022/08/19 01:08:44;;;;;;;1999.90;999.90;;;;;;;22.64;66.97;94879.94;5010211;28;20034;-76
2022/08/19 01:11:10;;;;;;;1999.90;999.90;;;;;;;22.28;68.01;94874.50;5012007;28;20228;-76
2022/08/19 01:13:36;;;;;;;1999.90;999.90;;;;;;;22.44;67.53;94868.72;5012210;28;20422;-76
2022/08/19 01:16:05;;;;;;;1999.90;999.90;;;;;;;22.09;69.25;94864.00;5010728;28;20025;-76
2022/08/19 01:18:32;;;;;;;1999.90;999.90;;;;;;;21.44;71.88;94884.66;5010473;28;20040;-75
2022/08/19 01:21:01;;;;;;;1999.90;999.90;;;;;;;21.34;72.25;94888.06;5010718;28;20034;-75
2022/08/19 01:23:42;;;;;;;1999.90;999.90;;;;;;;20.58;75.81;94877.91;5012081;28;20022;-75
2022/08/19 01:26:10;;;;;;;1999.90;999.90;;;;;;;21.06;74.24;94880.56;5011688;28;20026;-76
2022/08/19 01:28:36;;;;;;;1999.90;999.90;;;;;;;21.47;72.72;94883.91;5010898;28;20506;-76
2022/08/19 01:31:02;;;;;;;1999.90;999.90;;;;;;;21.43;72.30;94888.50;5009512;28;20030;-76
2022/08/19 01:33:28;;;;;;;1999.90;999.90;;;;;;;21.80;70.99;94896.41;5010121;28;20030;-76
2022/08/19 01:36:06;;;;;;;1999.90;999.90;;;;;;;21.31;72.17;94900.44;5010472;28;20049;-76
2022/08/19 01:38:37;;;;;;;1999.90;999.90;;;;;;;21.94;70.68;94914.63;4993192;28;20026;-77
2022/08/19 01:41:02;;;;;;;1999.90;999.90;;;;;;;22.14;69.38;94909.69;5001564;28;20052;-77
2022/08/19 01:43:27;;;;;;;1999.90;999.90;;;;;;;21.82;70.59;94907.63;5009904;28;20062;-76
2022/08/19 01:45:53;;;;;;;1999.90;999.90;;;;;;;22.27;69.19;94910.91;5010171;28;20036;-77
2022/08/19 01:48:18;;;;;;;1999.90;999.90;;;;;;;22.62;68.06;94918.28;4999820;28;20034;-76
2022/08/19 01:50:44;;;;;;;1999.90;999.90;;;;;;;22.92;67.29;94925.28;4991269;28;20484;-77
2022/08/19 01:53:11;;;;;;;1999.90;999.90;;;;;;;23.14;66.37;94929.56;5006495;28;20037;-76
2022/08/19 01:55:40;;;;;;;1999.90;999.90;;;;;;;23.28;65.82;94926.78;5011325;28;20029;-75
2022/08/19 01:58:10;;;;;;;1999.90;999.90;;;;;;;23.38;65.54;94924.47;5011192;28;20084;-76
2022/08/19 02:00:35;;;;;;;1999.90;999.90;;;;;;;23.37;64.45;94917.50;5009567;28;20439;-76
2022/08/19 02:03:01;;;;;;;1999.90;999.90;;;;;;;23.43;64.39;94908.53;5010354;28;20033;-77
2022/08/19 02:05:29;;;;;;;1999.90;999.90;;;;;;;23.51;63.88;94910.09;5010799;28;20025;-76
2022/08/19 02:07:55;;;;;;;1999.90;999.90;;;;;;;23.51;64.22;94909.31;5011321;28;20125;-77
2022/08/19 02:10:22;;;;;;;1999.90;999.90;;;;;;;23.63;63.68;94917.06;5009446;28;20124;-76
2022/08/19 02:12:49;;;;;;;1999.90;999.90;;;;;;;23.55;63.34;94910.84;5008971;28;20061;-77
2022/08/19 02:15:15;;;;;;;1999.90;999.90;;;;;;;23.59;63.36;94916.25;5009922;28;20109;-76
2022/08/19 02:17:40;;;;;;;1999.90;999.90;;;;;;;23.62;62.80;94923.63;5009858;28;20116;-77
2022/08/19 02:20:07;;;;;;;1999.90;999.90;;;;;;;23.73;62.57;94935.25;5010282;28;20057;-77
2022/08/19 02:22:33;;;;;;;1999.90;999.90;;;;;;;23.70;62.54;94929.81;5010155;28;20517;-76
2022/08/19 02:24:58;;;;;;;1999.90;999.90;;;;;;;23.68;62.59;94929.44;5011520;28;20479;-77
2022/08/19 02:27:24;;;;;;;1999.90;999.90;;;;;;;23.69;62.69;94941.84;5010476;28;20032;-76
2022/08/19 02:29:50;;;;;;;1999.90;999.90;;;;;;;23.67;62.33;94944.19;5010023;28;20109;-76
2022/08/19 02:32:19;;;;;;;1999.90;999.90;;;;;;;23.56;62.57;94936.06;5009188;28;20034;-77
2022/08/19 02:34:44;;;;;;;1999.90;999.90;;;;;;;23.50;62.43;94938.41;4996278;28;20113;-75
2022/08/19 02:38:24;;;;;;;1999.90;999.90;;;;;;;23.55;62.22;94934.50;5009533;28;20056;-75
2022/08/19 02:39:55;;;;;;;1999.90;999.90;;;;;;;23.40;62.62;94924.84;4997118;28;20030;-77
2022/08/19 02:42:21;;;;;;;1999.90;999.90;;;;;;;23.52;62.55;94919.00;5010912;28;20434;-76
2022/08/19 02:44:46;;;;;;;1999.90;999.90;;;;;;;23.26;62.50;94898.50;5009662;28;20030;-76
2022/08/19 02:47:13;;;;;;;1999.90;999.90;;;;;;;22.37;65.21;94882.25;5009056;28;20026;-76
2022/08/19 02:49:38;;;;;;;1999.90;999.90;;;;;;;21.27;70.23;94869.84;5008291;28;20092;-76
2022/08/19 02:52:04;;;;;;;1999.90;999.90;;;;;;;20.34;74.59;94865.69;5009648;28;20021;-76
2022/08/19 02:54:29;;;;;;;1999.90;999.90;;;;;;;20.89;72.41;94861.16;5008453;28;20885;-77
2022/08/19 02:56:54;;;;;;;1999.90;999.90;;;;;;;20.84;73.34;94866.13;5010370;28;20109;-77
2022/08/19 02:59:20;;;;;;;1999.90;999.90;;;;;;;21.05;72.24;94858.16;5009301;28;20109;-76
2022/08/19 03:01:46;;;;;;;1999.90;999.90;;;;;;;20.89;73.15;94860.38;5009039;28;20041;-77
2022/08/19 03:04:14;;;;;;;1999.90;999.90;;;;;;;20.79;73.39;94861.84;5008479;28;20018;-77
2022/08/19 03:06:42;;;;;;;1999.90;999.90;;;;;;;21.27;71.34;94857.09;5008758;28;20394;-76
2022/08/19 03:09:08;;;;;;;1999.90;999.90;;;;;;;20.99;72.83;94873.19;5009348;28;20029;-76
2022/08/19 03:11:34;;;;;;;1999.90;999.90;;;;;;;21.63;70.71;94884.34;4991176;28;20037;-76
2022/08/19 03:14:01;;;;;;;1999.90;999.90;;;;;;;21.85;69.61;94892.53;4991080;28;20030;-77
2022/08/19 03:16:29;;;;;;;1999.90;999.90;;;;;;;22.18;68.41;94888.81;5008414;28;20022;-76
2022/08/19 03:18:59;;;;;;;1999.90;999.90;;;;;;;22.34;67.41;94881.09;5009813;28;20050;-76
2022/08/19 03:21:26;;;;;;;1999.90;999.90;;;;;;;21.87;68.85;94871.28;5013150;28;20030;-76
2022/08/19 03:23:56;;;;;;;1999.90;999.90;;;;;;;22.49;67.45;94890.00;5010027;28;20032;-76
2022/08/19 03:26:22;;;;;;;1999.90;999.90;;;;;;;22.81;66.89;94909.75;5008912;28;20482;-80
2022/08/19 03:28:49;;;;;;;1999.90;999.90;;;;;;;22.95;66.12;94908.25;5009950;28;20068;-80
2022/08/19 03:31:17;;;;;;;1999.90;999.90;;;;;;;23.15;65.12;94916.75;5010135;28;20092;-80
2022/08/19 03:33:43;;;;;;;1999.90;999.90;;;;;;;23.07;64.29;94900.47;5010028;28;20097;-81
2022/08/19 03:36:16;;;;;;;1999.90;999.90;;;;;;;23.22;64.09;94905.88;5009955;28;20108;-80
2022/08/19 03:38:44;;;;;;;1999.90;999.90;;;;;;;22.91;63.88;94897.41;5011064;28;20030;-80
2022/08/19 03:41:13;;;;;;;1999.90;999.90;;;;;;;22.64;64.89;94899.69;4997022;28;20411;-80
2022/08/19 03:43:40;;;;;;;1999.90;999.90;;;;;;;22.43;65.72;94905.13;5011176;28;20025;-80
2022/08/19 03:46:11;;;;;;;1999.90;999.90;;;;;;;22.62;65.72;94898.53;5008695;28;20029;-80
2022/08/19 03:48:38;;;;;;;1999.90;999.90;;;;;;;22.47;65.14;94887.69;5009880;28;20044;-80
2022/08/19 03:51:04;;;;;;;1999.90;999.90;;;;;;;22.68;64.48;94892.34;5010029;28;20032;-79
2022/08/19 03:53:31;;;;;;;1999.90;999.90;;;;;;;21.65;68.07;94879.34;5010842;28;20068;-80
2022/08/19 03:55:59;;;;;;;1999.90;999.90;;;;;;;21.86;68.04;94904.94;5011263;28;20030;-80
2022/08/19 03:58:27;;;;;;;1999.90;999.90;;;;;;;21.70;68.27;94891.72;5011124;28;20022;-80
2022/08/19 04:00:53;;;;;;;1999.90;999.90;;;;;;;22.12;67.36;94882.22;5010671;28;20022;-80
2022/08/19 04:03:18;;;;;;;1999.90;999.90;;;;;;;22.16;67.35;94891.91;5007687;28;20368;-80
2022/08/19 04:05:44;;;;;;;1999.90;999.90;;;;;;;21.68;67.84;94859.63;4997907;28;20022;-80
2022/08/19 04:08:09;;;;;;;1999.90;999.90;;;;;;;22.23;66.90;94889.22;4992510;28;20069;-80
2022/08/19 04:10:36;;;;;;;1999.90;999.90;;;;;;;22.33;66.22;94876.06;5011294;28;20056;-80
2022/08/19 04:13:05;;;;;;;1999.90;999.90;;;;;;;22.11;66.79;94875.22;5009806;28;20026;-80
2022/08/19 04:15:35;;;;;;;1999.90;999.90;;;;;;;22.19;67.05;94874.88;5009256;28;20386;-80
2022/08/19 04:18:01;;;;;;;1999.90;999.90;;;;;;;22.33;66.21;94892.31;5010021;28;20356;-81
2022/08/19 04:20:26;;;;;;;1999.90;999.90;;;;;;;21.47;69.49;94889.31;5009972;28;20129;-80
2022/08/19 04:22:52;;;;;;;1999.90;999.90;;;;;;;21.93;68.39;94891.41;5009741;28;20025;-80
2022/08/19 04:25:17;;;;;;;1999.90;999.90;;;;;;;21.86;67.84;94858.91;5010966;28;20034;-81
2022/08/19 04:27:46;;;;;;;1999.90;999.90;;;;;;;22.24;67.15;94898.09;5010539;28;20052;-79
2022/08/19 04:30:12;;;;;;;1999.90;999.90;;;;;;;22.26;66.21;94882.22;4994131;28;20069;-80
2022/08/19 04:32:38;;;;;;;1999.90;999.90;;;;;;;22.30;66.25;94878.38;5009313;28;20018;-80
2022/08/19 04:35:04;;;;;;;1999.90;999.90;;;;;;;22.63;65.58;94913.66;5010506;28;20030;-81
2022/08/19 04:37:33;;;;;;;1999.90;999.90;;;;;;;23.10;64.73;94923.34;5013113;28;20065;-81
2022/08/19 04:42:42;;;;;;;1999.90;999.90;;;;;;;23.47;63.13;94922.88;5005333;28;20066;-79
2022/08/19 04:45:14;;;;;;;1999.90;999.90;;;;;;;23.52;62.61;94900.78;5014101;28;20030;-81
2022/08/19 04:47:43;;;;;;;1999.90;999.90;;;;;;;23.88;61.74;94940.63;5013518;28;20048;-80
2022/08/19 04:50:11;;;;;;;1999.90;999.90;;;;;;;23.83;61.43;94933.66;5012100;28;20088;-81
2022/08/19 04:52:42;;;;;;;1999.90;999.90;;;;;;;23.90;61.22;94941.00;5014201;28;20029;-80
2022/08/19 04:55:11;;;;;;;1999.90;999.90;;;;;;;23.99;61.19;94944.09;4997322;28;20046;-81
2022/08/19 04:57:39;;;;;;;1999.90;999.90;;;;;;;23.75;60.69;94894.91;4994284;28;20647;-80
2022/08/19 05:00:06;;;;;;;1999.90;999.90;;;;;;;23.93;60.57;94911.13;5008108;28;20080;-81
2022/08/19 05:02:32;;;;;;;1999.90;999.90;;;;;;;23.90;59.74;94908.41;5008624;28;20050;-78
2022/08/19 05:05:00;;;;;;;1999.90;999.90;;;;;;;24.18;59.97;94959.91;5010965;28;20376;-74
2022/08/19 05:07:26;;;;;;;1999.90;999.90;;;;;;;24.21;59.98;94956.41;5012351;28;20416;-68
2022/08/19 05:09:52;;;;;;;1999.90;999.90;;;;;;;24.01;59.96;94939.03;5010764;28;20033;-72
2022/08/19 05:12:18;;;;;;;1999.90;999.90;;;;;;;24.21;59.97;94964.56;5009521;28;20022;-73
2022/08/19 05:14:45;;;;;;;1999.90;999.90;;;;;;;24.31;59.74;94958.31;5011322;28;20038;-74
2022/08/19 05:17:10;;;;;;;1999.90;999.90;;;;;;;24.15;59.57;94933.53;5010391;28;20049;-74
2022/08/19 05:22:34;;;;;;;1999.90;999.90;;;;;;;24.30;59.85;94945.09;5010966;28;20096;-74
2022/08/19 05:25:03;;;;;;;1999.90;999.90;;;;;;;24.17;59.91;94942.06;5011799;28;20497;-75
2022/08/19 05:27:28;;;;;;;1999.90;999.90;;;;;;;24.19;59.92;94938.94;5008389;28;20410;-72
2022/08/19 05:29:53;;;;;;;1999.90;999.90;;;;;;;24.31;59.37;94947.44;5009228;28;20022;-74
2022/08/19 05:32:19;;;;;;;1999.90;999.90;;;;;;;24.12;59.21;94896.28;5010515;28;20061;-73
2022/08/19 05:34:44;;;;;;;1999.90;999.90;;;;;;;24.02;59.20;94903.31;5008739;28;20040;-74
2022/08/19 05:37:10;;;;;;;1999.90;999.90;;;;;;;24.08;59.34;94896.28;5009927;28;20129;-72
2022/08/19 05:39:37;;;;;;;1999.90;999.90;;;;;;;24.52;59.57;94940.34;5011242;28;20053;-74
2022/08/19 05:42:06;;;;;;;1999.90;999.90;;;;;;;24.24;59.27;94882.22;5008264;28;20538;-74
2022/08/19 05:44:34;;;;;;;1999.90;999.90;;;;;;;24.36;59.07;94897.31;5010723;28;20441;-71
2022/08/19 05:47:02;;;;;;;1999.90;999.90;;;;;;;24.51;58.54;94903.44;5009161;28;20471;-73
2022/08/19 05:49:28;;;;;;;1999.90;999.90;;;;;;;24.62;58.32;94906.88;5008318;28;20399;-74
2022/08/19 05:51:55;;;;;;;1999.90;999.90;;;;;;;24.58;58.34;94903.41;5009335;28;20422;-75
2022/08/19 05:54:22;;;;;;;1999.90;999.90;;;;;;;24.75;58.40;94934.34;5010098;28;20022;-73
2022/08/19 05:56:49;;;;;;;1999.90;999.90;;;;;;;24.84;57.97;94929.25;5009092;28;20029;-73
2022/08/19 05:59:17;;;;;;;1999.90;999.90;;;;;;;24.79;57.59;94916.84;5008298;28;20034;-72
2022/08/19 06:01:45;;;;;;;1999.90;999.90;;;;;;;24.73;57.75;94910.28;5008477;28;20419;-73
2022/08/19 06:04:13;;;;;;;1999.90;999.90;;;;;;;24.97;57.63;94952.06;5011070;28;20395;-75
2022/08/19 06:06:38;;;;;;;1999.90;999.90;;;;;;;25.01;57.22;94943.88;5008452;28;20253;-78
2022/08/19 06:09:07;;;;;;;1999.90;999.90;;;;;;;25.04;57.42;94943.06;5006525;28;20064;-78
2022/08/19 06:11:40;;;;;;;1999.90;999.90;;;;;;;24.78;57.45;94898.19;4992567;28;20101;-77
2022/08/19 06:14:08;;;;;;;1999.90;999.90;;;;;;;24.95;57.01;94923.72;5009661;28;20030;-76
2022/08/19 06:16:35;;;;;;;1999.90;999.90;;;;;;;24.67;56.74;94911.88;5008782;28;20034;-79
2022/08/19 06:19:04;;;;;;;1999.90;999.90;;;;;;;24.26;57.21;94887.25;5009754;28;20033;-78
2022/08/19 06:21:30;;;;;;;1999.90;999.90;;;;;;;24.47;57.47;94927.19;5009932;28;20117;-79
2022/08/19 06:24:09;;;;;;;1999.90;999.90;;;;;;;24.64;57.40;94954.25;5009592;28;20113;-77
2022/08/19 06:26:36;;;;;;;1999.90;999.90;;;;;;;24.59;57.74;94937.56;5010527;28;20022;-79
2022/08/19 06:29:06;;;;;;;1999.90;999.90;;;;;;;24.82;58.05;94958.78;5010016;28;20025;-77
2022/08/19 06:31:33;;;;;;;1999.90;999.90;;;;;;;24.74;57.65;94944.47;5010610;28;20666;-79
2022/08/19 06:34:02;;;;;;;1999.90;999.90;;;;;;;24.84;57.94;94951.00;5010645;28;20095;-79
2022/08/19 06:36:33;;;;;;;1999.90;999.90;;;;;;;24.88;57.60;94947.09;5010139;28;20048;-80
2022/08/19 06:39:02;;;;;;;1999.90;999.90;;;;;;;24.66;57.77;94913.03;5004467;28;20028;-78
2022/08/19 06:41:29;;;;;;;1999.90;999.90;;;;;;;24.70;58.05;94937.50;5009875;28;20037;-78
2022/08/19 06:43:55;;;;;;;1999.90;999.90;;;;;;;24.70;58.33;94930.09;5009288;28;20026;-78
2022/08/19 06:46:21;;;;;;;1999.90;999.90;;;;;;;24.97;58.07;94959.44;5011705;28;20377;-77
2022/08/19 06:48:53;;;;;;;1999.90;999.90;;;;;;;24.60;57.84;94901.03;5009919;28;20441;-79
2022/08/19 06:51:18;;;;;;;1999.90;999.90;;;;;;;24.69;57.91;94936.72;5006913;28;20106;-79
2022/08/19 06:53:52;;;;;;;1999.90;999.90;;;;;;;24.54;58.42;94924.41;5001083;28;20125;-72
2022/08/19 06:56:21;;;;;;;1999.90;999.90;;;;;;;24.72;58.78;94940.59;5006772;28;20029;-72
2022/08/19 06:58:51;;;;;;;1999.90;999.90;;;;;;;24.56;58.41;94919.31;5009372;28;20037;-72
2022/08/19 07:01:17;;;;;;;1999.90;999.90;;;;;;;24.51;58.77;94914.31;5006979;28;20034;-71
2022/08/19 07:03:42;;;;;;;1999.90;999.90;;;;;;;24.29;59.02;94898.13;5006883;28;20041;-71
2022/08/19 07:06:12;;;;;;;1999.90;999.90;;;;;;;24.42;59.59;94952.84;5006969;28;20041;-67
2022/08/19 07:08:40;;;;;;;1999.90;999.90;;;;;;;23.96;61.25;94944.88;5006260;28;20077;-68
2022/08/19 07:11:07;;;;;;;1999.90;999.90;;;;;;;23.71;62.29;94939.53;5007166;28;20053;-68
2022/08/19 07:13:36;;;;;;;1999.90;999.90;;;;;;;23.32;63.11;94924.84;5003650;28;20030;-69
2022/08/19 07:16:07;;;;;;;1999.90;999.90;;;;;;;23.27;62.30;94876.41;5010013;28;20025;-69
2022/08/19 07:18:34;;;;;;;1999.90;999.90;;;;;;;22.95;62.76;94875.69;5008222;28;20061;-69
2022/08/19 07:21:15;;;;;;;1999.90;999.90;;;;;;;23.32;63.66;94924.84;5008952;28;20037;-69
2022/08/19 07:23:41;;;;;;;1999.90;999.90;;;;;;;23.34;64.32;94919.06;5008444;28;20033;-70
2022/08/19 07:26:23;;;;;;;1999.90;999.90;;;;;;;23.56;63.60;94911.63;5009475;28;20037;-69
2022/08/19 07:28:48;;;;;;;1999.90;999.90;;;;;;;23.18;63.81;94884.16;5008429;28;20041;-69
2022/08/19 07:31:18;;;;;;;1999.90;999.90;;;;;;;22.83;65.47;94896.59;5008802;28;20138;-68
2022/08/19 07:33:45;;;;;;;1999.90;999.90;;;;;;;22.00;68.02;94888.72;5006648;28;20018;-78
2022/08/19 07:36:12;;;;;;;1999.90;999.90;;;;;;;21.69;69.26;94872.00;4989394;28;20026;-78
2022/08/19 07:38:41;;;;;;;1999.90;999.90;;;;;;;21.89;69.69;94887.91;5007472;28;20030;-74
2022/08/19 07:41:10;;;;;;;1999.90;999.90;;;;;;;22.86;66.89;94894.28;5008191;28;20520;-74
2022/08/19 07:43:36;;;;;;;1999.90;999.90;;;;;;;23.33;64.58;94901.97;5006782;28;20030;-77
2022/08/19 07:46:01;;;;;;;1999.90;999.90;;;;;;;23.63;63.12;94889.91;5002083;28;20033;-77
2022/08/19 07:48:28;;;;;;;1999.90;999.90;;;;;;;24.29;61.01;94928.00;4997707;28;20026;-76
2022/08/19 07:50:56;;;;;;;1999.90;999.90;;;;;;;23.84;62.34;94913.47;5002136;28;20037;-76
2022/08/19 07:53:24;;;;;;;1999.90;999.90;;;;;;;24.30;60.89;94932.28;5004710;28;20031;-77
2022/08/19 07:55:50;;;;;;;1999.90;999.90;;;;;;;23.20;63.20;94910.94;5001459;28;20498;-77
2022/08/19 07:58:19;;;;;;;1999.90;999.90;;;;;;;24.19;61.00;94933.50;5005753;28;20073;-76
2022/08/19 08:00:47;;;;;;;1999.90;999.90;;;;;;;24.07;61.18;94935.50;5005128;28;20475;-76
2022/08/19 08:03:15;;;;;;;1999.90;999.90;;;;;;;23.34;63.51;94936.13;5019382;28;20025;-74
2022/08/19 08:11:10;;;;;;;1999.90;999.90;;;;;;;23.38;63.65;94924.47;5009641;28;20068;-76
2022/08/19 08:13:36;;;;;;;1999.90;999.90;;;;;;;23.25;64.06;94915.97;5007869;28;20034;-76
2022/08/19 08:16:02;;;;;;;1999.90;999.90;;;;;;;23.39;63.12;94915.94;5003294;28;20072;-76
2022/08/19 08:18:27;;;;;;;1999.90;999.90;;;;;;;23.23;63.45;94913.63;5005630;28;20105;-76
2022/08/19 08:20:52;;;;;;;1999.90;999.90;;;;;;;23.26;64.30;94926.41;4970212;28;1089157;-76
2022/08/19 08:23:28;;;;;;;1999.90;999.90;;;;;;;23.42;64.13;94936.84;5022625;28;20030;-76
2022/08/19 08:25:57;;;;;;;1999.90;999.90;;;;;;;22.77;66.32;94929.91;5005485;28;20117;-79
2022/08/19 08:28:23;;;;;;;1999.90;999.90;;;;;;;23.09;64.73;94875.69;5012252;28;20030;-80
2022/08/19 08:30:49;;;;;;;1999.90;999.90;;;;;;;22.88;65.16;94938.88;5012777;28;20076;-78
2022/08/19 08:33:24;;;;;;;1999.90;999.90;;;;;;;22.38;67.50;94940.72;5009540;28;20018;-75
2022/08/19 08:35:49;;;;;;;1999.90;999.90;;;;;;;22.49;67.23;94914.41;5003906;28;20084;-75
2022/08/19 08:38:17;;;;;;;1999.90;999.90;;;;;;;22.98;65.97;94950.84;5009827;28;20422;-75
2022/08/19 08:40:49;;;;;;;1999.90;999.90;;;;;;;23.66;64.61;94945.38;5009747;28;20024;-75
2022/08/19 08:43:32;;;;;;;1999.90;999.90;;;;;;;23.51;63.44;94944.59;5008577;28;20526;-77
2022/08/19 08:46:09;;;;;;;1999.90;999.90;;;;;;;23.75;62.46;94953.84;5010115;28;20038;-76
2022/08/19 08:48:46;;;;;;;1999.90;999.90;;;;;;;23.89;62.54;94969.34;5010166;28;20033;-76
2022/08/19 08:51:20;;;;;;;1999.90;999.90;;;;;;;23.96;61.67;94936.72;5004074;28;20025;-76
2022/08/19 08:53:48;;;;;;;1999.90;999.90;;;;;;;24.31;61.60;94971.09;5011948;28;20021;-77
2022/08/19 08:56:15;;;;;;;1999.90;999.90;;;;;;;24.22;61.51;94938.94;5011716;28;20062;-76
2022/08/19 08:58:50;;;;;;;1999.90;999.90;;;;;;;24.56;61.39;94971.75;5011759;28;20018;-76
2022/08/19 09:01:17;;;;;;;1999.90;999.90;;;;;;;24.66;61.43;94974.81;5010669;28;20025;-78
2022/08/19 09:03:45;;;;;;;1999.90;999.90;;;;;;;24.66;61.25;94983.75;5011317;28;20030;-77
2022/08/19 09:06:24;;;;;;;1999.90;999.90;;;;;;;24.65;60.73;94971.34;5011685;28;20372;-78
2022/08/19 09:09:03;;;;;;;1999.90;999.90;;;;;;;24.83;60.10;94982.88;5010215;28;20033;-78
2022/08/19 09:11:47;;;;;;;1999.90;999.90;;;;;;;24.87;59.72;94988.28;5001780;28;20061;-76
2022/08/19 09:14:41;;;;;;;1999.90;999.90;;;;;;;24.89;59.66;94984.00;5012583;28;20464;-78
2022/08/19 09:17:08;;;;;;;1999.90;999.90;;;;;;;24.95;59.49;94984.34;5010980;28;20446;-76
2022/08/19 09:19:55;;;;;;;1999.90;999.90;;;;;;;25.01;59.39;94985.44;5011579;28;20034;-75
2022/08/19 09:22:24;;;;;;;1999.90;999.90;;;;;;;24.85;59.73;94947.88;5011818;28;20415;-77
2022/08/19 09:24:52;;;;;;;1999.90;999.90;;;;;;;24.27;62.05;94979.28;5010397;28;20038;-78
2022/08/19 09:27:17;;;;;;;1999.90;999.90;;;;;;;23.78;67.14;94959.28;5013273;28;20053;-76
2022/08/19 09:29:43;;;;;;;1999.90;999.90;;;;;;;24.03;69.06;94947.56;5012027;28;20072;-78
2022/08/19 09:32:08;;;;;;;1999.90;999.90;;;;;;;24.27;70.06;94938.53;5010797;28;20387;-76
2022/08/19 09:34:33;;;;;;;1999.90;999.90;;;;;;;24.43;68.63;94945.44;5006581;28;20065;-78
2022/08/19 09:36:59;;;;;;;1999.90;999.90;;;;;;;23.38;67.07;94946.94;4994389;28;20022;-77
2022/08/19 09:39:26;;;;;;;1999.90;999.90;;;;;;;23.81;69.06;94950.38;4995356;28;20185;-76
2022/08/19 09:41:52;;;;;;;1999.90;999.90;;;;;;;24.40;70.25;94970.69;4994590;28;20038;-77
2022/08/19 09:44:20;;;;;;;1999.90;999.90;;;;;;;24.72;69.64;94960.41;4997387;28;20488;-76
2022/08/19 09:46:48;;;;;;;1999.90;999.90;;;;;;;25.04;68.68;94973.00;5012248;28;20034;-76
2022/08/19 09:49:21;;;;;;;1999.90;999.90;;;;;;;23.16;66.30;94921.78;5011174;28;20022;-78
2022/08/19 09:51:50;;;;;;;1999.90;999.90;;;;;;;23.24;68.47;94985.75;5007055;28;20073;-77
2022/08/19 09:54:15;;;;;;;1999.90;999.90;;;;;;;23.00;69.17;94968.31;5009025;28;20128;-73
2022/08/19 09:56:41;;;;;;;1999.90;999.90;;;;;;;23.63;69.86;94949.63;5000884;28;20109;-78
2022/08/19 09:59:06;;;;;;;1999.90;999.90;;;;;;;23.52;69.09;94951.56;4991238;28;20375;-78
2022/08/19 10:01:32;;;;;;;1999.90;999.90;;;;;;;24.32;70.22;94962.56;5001519;28;20037;-70
2022/08/19 10:04:00;;;;;;;1999.90;999.90;;;;;;;24.53;67.12;94939.94;5011019;28;20080;-72
2022/08/19 10:06:33;;;;;;;1999.90;999.90;;;;;;;25.07;67.52;94989.31;5010449;28;20111;-73
2022/08/19 10:08:59;;;;;;;1999.90;999.90;;;;;;;25.33;65.65;94995.34;5011280;28;20022;-71
2022/08/19 10:11:26;;;;;;;1999.90;999.90;;;;;;;25.40;65.37;94981.66;5010357;28;20037;-74
2022/08/19 10:13:51;;;;;;;1999.90;999.90;;;;;;;25.52;63.29;94988.56;5009664;28;20026;-70
2022/08/19 10:16:21;;;;;;;1999.90;999.90;;;;;;;24.55;62.82;94945.75;5009690;28;20053;-69
2022/08/19 10:18:47;;;;;;;1999.90;999.90;;;;;;;24.18;64.81;94965.34;4997439;28;20379;-73
2022/08/19 10:21:19;;;;;;;1999.90;999.90;;;;;;;23.61;65.89;94935.66;5011053;28;20037;-71
2022/08/19 10:23:47;;;;;;;1999.90;999.90;;;;;;;24.07;64.61;94932.78;5008546;28;20493;-73
2022/08/19 10:26:17;;;;;;;1999.90;999.90;;;;;;;24.88;65.55;94916.38;5009906;28;20041;-73
2022/08/19 10:28:43;;;;;;;1999.90;999.90;;;;;;;24.82;64.16;94931.56;5010183;28;20053;-75
2022/08/19 10:31:14;;;;;;;1999.90;999.90;;;;;;;25.76;61.28;94971.22;5008801;28;20483;-72
2022/08/19 10:33:40;;;;;;;1999.90;999.90;;;;;;;25.56;59.80;94929.38;5010122;28;20022;-73
2022/08/19 10:36:09;;;;;;;1999.90;999.90;;;;;;;24.71;63.04;94936.31;5009834;28;20313;-72
2022/08/19 10:38:36;;;;;;;1999.90;999.90;;;;;;;25.50;60.84;94923.63;5009500;28;20111;-72
2022/08/19 10:41:13;;;;;;;1999.90;999.90;;;;;;;25.38;60.32;94938.50;5008556;28;20486;-76
2022/08/19 10:43:40;;;;;;;1999.90;999.90;;;;;;;27.03;58.08;94917.34;5008325;28;20038;-72
2022/08/19 10:46:12;;;;;;;1999.90;999.90;;;;;;;26.18;56.76;94948.13;5008837;28;20034;-77
2022/08/19 10:48:37;;;;;;;1999.90;999.90;;;;;;;25.72;58.28;94956.84;5010557;28;20030;-74
2022/08/19 10:53:47;;;;;;;1999.90;999.90;;;;;;;23.93;63.73;94960.00;5010702;28;20087;-77
2022/08/19 10:58:57;;;;;;;1999.90;999.90;;;;;;;23.89;64.36;94953.81;5010996;28;20040;-70
2022/08/19 11:01:25;;;;;;;1999.90;999.90;;;;;;;24.53;64.20;94934.50;5008669;28;20109;-69
2022/08/19 11:03:50;;;;;;;1999.90;999.90;;;;;;;25.35;60.07;94927.66;5010056;28;20438;-70
2022/08/19 11:06:16;;;;;;;1999.90;999.90;;;;;;;23.90;62.21;94922.00;5010077;28;20021;-71
2022/08/19 11:08:43;;;;;;;1999.90;999.90;;;;;;;24.67;62.56;94955.41;5010214;28;20457;-72
2022/08/19 11:11:08;;;;;;;1999.90;999.90;;;;;;;24.53;62.20;94952.78;5006816;28;20147;-71
2022/08/19 11:13:37;;;;;;;1999.90;999.90;;;;;;;23.91;63.13;94929.00;5008586;28;20388;-72